createdAt,value
2022-09-30T00:01:44.449Z,1009.513428
2022-09-30T00:02:45.553Z,1009.569946
2022-09-30T00:03:43.566Z,1009.538086
2022-09-30T00:04:46.524Z,1009.602539
2022-09-30T00:05:43.356Z,1009.597534
2022-09-30T00:06:48.080Z,1009.560791
2022-09-30T00:07:43.404Z,1009.559326
2022-09-30T00:08:49.009Z,1009.50824
2022-09-30T00:09:50.960Z,1009.591858
2022-09-30T00:11:54.686Z,1009.540039
2022-09-30T00:12:50.385Z,1009.545105
2022-09-30T00:13:51.312Z,1009.590027
2022-09-30T00:14:49.297Z,1009.613342
2022-09-30T00:16:48.925Z,1009.632629
2022-09-30T00:17:52.397Z,1009.772278
2022-09-30T00:18:55.985Z,1009.72467
2022-09-30T00:19:54.864Z,1009.743103
2022-09-30T00:21:54.523Z,1009.743103
2022-09-30T00:22:58.327Z,1009.753906
2022-09-30T00:24:04.448Z,1009.746277
2022-09-30T00:25:05.196Z,1009.725464
2022-09-30T00:27:03.847Z,1009.802246
2022-09-30T00:28:08.432Z,1009.802246
2022-09-30T00:29:52.338Z,1009.737061
2022-09-30T00:30:35.575Z,1009.743164
2022-09-30T00:32:40.240Z,1009.787903
2022-09-30T00:33:34.940Z,1009.71051
2022-09-30T00:34:37.510Z,1009.752991
2022-09-30T00:35:32.991Z,1009.731323
2022-09-30T00:36:38.912Z,1009.699585
2022-09-30T00:37:33.256Z,1009.756104
2022-09-30T00:38:34.497Z,1009.708618
2022-09-30T00:39:34.445Z,1009.757141
2022-09-30T00:40:36.854Z,1009.711487
2022-09-30T00:41:32.535Z,1009.634216
2022-09-30T00:42:32.306Z,1009.709412
2022-09-30T00:43:27.699Z,1009.723755
2022-09-30T00:44:38.649Z,1009.677734
2022-09-30T00:45:33.873Z,1009.73114
2022-09-30T00:47:32.680Z,1009.71283
2022-09-30T00:48:30.920Z,1009.697021
2022-09-30T00:49:33.699Z,1009.757935
2022-09-30T00:50:25.976Z,1009.784607
2022-09-30T00:52:20.910Z,1009.72876
2022-09-30T00:53:17.782Z,1009.793091
2022-09-30T00:54:16.605Z,1009.777222
2022-09-30T00:55:28.647Z,1009.766296
2022-09-30T00:57:28.817Z,1009.745544
2022-09-30T00:58:30.418Z,1009.745544
2022-09-30T00:59:23.382Z,1009.732117
2022-09-30T01:00:26.820Z,1009.778198
2022-09-30T01:01:22.136Z,1009.751343
2022-09-30T01:02:25.981Z,1009.799744
2022-09-30T01:03:19.056Z,1009.802246
2022-09-30T01:04:24.049Z,1009.759583
2022-09-30T01:05:19.404Z,1009.821472
2022-09-30T01:06:46.770Z,1009.818176
2022-09-30T01:07:30.209Z,1009.906677
2022-09-30T01:08:28.284Z,1009.78064
2022-09-30T01:09:31.572Z,1009.775513
2022-09-30T01:10:26.543Z,1009.882385
2022-09-30T01:12:23.657Z,1009.890808
2022-09-30T01:13:23.642Z,1009.901672
2022-09-30T01:14:19.110Z,1009.850708
2022-09-30T01:15:21.520Z,1009.873047
2022-09-30T01:17:19.161Z,1009.837158
2022-09-30T01:18:14.320Z,1009.808228
2022-09-30T01:19:17.366Z,1009.784607
2022-09-30T01:20:12.597Z,1009.800354
2022-09-30T01:21:15.152Z,1009.855835
2022-09-30T01:22:11.447Z,1009.800354
2022-09-30T01:23:11.620Z,1009.873047
2022-09-30T01:24:12.218Z,1009.929138
2022-09-30T01:26:54.260Z,1009.915588
2022-09-30T01:28:07.301Z,1009.849976
2022-09-30T01:29:01.015Z,1009.944275
2022-09-30T01:29:59.144Z,1009.859131
2022-09-30T01:32:01.553Z,1009.87384
2022-09-30T01:33:06.159Z,1009.858887
2022-09-30T01:34:04.112Z,1009.96991
2022-09-30T01:35:03.406Z,1010.013306
2022-09-30T01:37:33.887Z,1010.010742
2022-09-30T01:38:14.460Z,1009.968201
2022-09-30T01:39:12.514Z,1009.96228
2022-09-30T01:40:13.978Z,1010.004944
2022-09-30T01:42:12.466Z,1009.990479
2022-09-30T01:43:10.026Z,1009.947876
2022-09-30T01:44:12.809Z,1009.934021
2022-09-30T01:45:09.193Z,1009.954834
2022-09-30T01:47:05.465Z,1010.035034
2022-09-30T01:48:15.353Z,1009.896423
2022-09-30T01:49:13.956Z,1009.963806
2022-09-30T01:50:09.388Z,1009.950684
2022-09-30T01:51:09.277Z,1009.950684
2022-09-30T01:52:11.908Z,1009.937683
2022-09-30T01:53:14.159Z,1009.937683
2022-09-30T01:54:09.519Z,1009.934814
2022-09-30T01:55:16.152Z,1009.90802
2022-09-30T01:57:15.086Z,1009.978088
2022-09-30T01:58:08.514Z,1009.962219
2022-09-30T01:59:11.035Z,1009.970337
2022-09-30T02:00:09.968Z,1010.042419
2022-09-30T02:01:12.385Z,1009.978088
2022-09-30T02:02:05.861Z,1010.021484
2022-09-30T02:03:09.468Z,1009.968079
2022-09-30T02:04:04.785Z,1010.002808
2022-09-30T02:05:07.118Z,1010.04541
2022-09-30T02:06:01.247Z,1010.044617
2022-09-30T02:07:04.403Z,1010.015686
2022-09-30T02:08:04.133Z,1009.993958
2022-09-30T02:09:08.224Z,1009.983093
2022-09-30T02:10:00.804Z,1010.020691
2022-09-30T02:12:01.706Z,1010.039612
2022-09-30T02:12:57.648Z,1009.962219
2022-09-30T02:14:41.898Z,1010.004028
2022-09-30T02:15:29.641Z,1009.944031
2022-09-30T02:17:25.679Z,1009.890503
2022-09-30T02:18:27.631Z,1009.98407
2022-09-30T02:19:26.951Z,1009.937073
2022-09-30T02:20:32.489Z,1009.886414
2022-09-30T02:22:26.928Z,1009.902954
2022-09-30T02:23:28.329Z,1009.8526
2022-09-30T02:24:31.027Z,1009.897949
2022-09-30T02:25:25.913Z,1009.881348
2022-09-30T02:26:24.879Z,1009.939758
2022-09-30T02:27:27.014Z,1009.953735
2022-09-30T02:28:28.498Z,1009.884338
2022-09-30T02:29:22.914Z,1009.881348
2022-09-30T02:30:26.606Z,1009.86554
2022-09-30T02:32:22.908Z,1009.871277
2022-09-30T02:33:22.823Z,1009.906006
2022-09-30T02:34:19.059Z,1009.855286
2022-09-30T02:35:20.073Z,1009.91687
2022-09-30T02:36:15.370Z,1009.978088
2022-09-30T02:37:16.092Z,1009.954407
2022-09-30T02:38:10.281Z,1009.968079
2022-09-30T02:39:15.898Z,1009.968079
2022-09-30T02:40:16.682Z,1009.986938
2022-09-30T02:42:17.771Z,1010.002808
2022-09-30T02:43:16.998Z,1009.986938
2022-09-30T02:44:16.241Z,1010.005554
2022-09-30T02:45:11.598Z,1009.994812
2022-09-30T02:48:18.753Z,1010.017151
2022-09-30T02:49:01.614Z,1010.069153
2022-09-30T02:50:00.676Z,1010.009949
2022-09-30T02:52:01.194Z,1010.056702
2022-09-30T02:53:11.451Z,1010.062561
2022-09-30T02:54:13.177Z,1010.033875
2022-09-30T02:55:13.985Z,1010.079224
2022-09-30T02:56:13.302Z,1010.060608
2022-09-30T02:57:14.406Z,1010.114014
2022-09-30T02:58:13.922Z,1010.069092
2022-09-30T02:59:19.877Z,1010.095764
2022-09-30T03:00:21.803Z,1010.095764
2022-09-30T03:02:20.754Z,1010.117432
2022-09-30T03:03:24.848Z,1010.117432
2022-09-30T03:04:20.016Z,1010.178955
2022-09-30T03:05:23.676Z,1010.175903
2022-09-30T03:06:27.678Z,1010.199829
2022-09-30T03:07:28.049Z,1010.149231
2022-09-30T03:08:26.291Z,1010.183899
2022-09-30T03:09:30.260Z,1010.229309
2022-09-30T03:10:27.127Z,1010.210693
2022-09-30T03:11:28.996Z,1010.218506
2022-09-30T03:12:25.699Z,1010.133423
2022-09-30T03:13:31.986Z,1010.141479
2022-09-30T03:14:28.904Z,1010.168152
2022-09-30T03:15:30.777Z,1010.1651
2022-09-30T03:16:29.125Z,1010.143372
2022-09-30T03:17:27.854Z,1010.108887
2022-09-30T03:18:31.462Z,1010.122437
2022-09-30T03:19:30.029Z,1010.173889
2022-09-30T03:20:30.863Z,1010.13916
2022-09-30T03:21:29.248Z,1010.070435
2022-09-30T03:22:30.133Z,1010.088745
2022-09-30T03:23:54.457Z,1010.147949
2022-09-30T03:24:34.847Z,1010.201477
2022-09-30T03:25:32.974Z,1010.147217
2022-09-30T03:26:32.882Z,1010.177307
2022-09-30T03:27:30.866Z,1010.134705
2022-09-30T03:28:35.355Z,1010.217346
2022-09-30T03:29:36.012Z,1010.207214
2022-09-30T03:30:33.967Z,1010.135498
2022-09-30T03:32:36.177Z,1010.288086
2022-09-30T03:33:36.692Z,1010.347778
2022-09-30T03:34:39.128Z,1010.262634
2022-09-30T03:36:42.479Z,1010.342712
2022-09-30T03:37:39.397Z,1010.292053
2022-09-30T03:38:42.683Z,1010.292053
2022-09-30T03:39:38.996Z,1010.444458
2022-09-30T03:41:39.437Z,1010.425598
2022-09-30T03:42:40.093Z,1010.321472
2022-09-30T03:43:35.677Z,1010.292053
2022-09-30T03:44:38.378Z,1010.307983
2022-09-30T03:45:33.486Z,1010.339722
2022-09-30T03:47:31.557Z,1010.328918
2022-09-30T03:48:37.448Z,1010.355591
2022-09-30T03:49:30.822Z,1010.393127
2022-09-30T03:50:31.764Z,1010.341431
2022-09-30T03:52:32.033Z,1010.389832
2022-09-30T03:53:30.282Z,1010.374451
2022-09-30T03:54:30.183Z,1010.430603
2022-09-30T03:55:29.202Z,1010.481323
2022-09-30T03:57:25.027Z,1010.479004
2022-09-30T03:58:37.035Z,1010.543274
2022-09-30T03:59:33.967Z,1010.500366
2022-09-30T04:00:32.990Z,1010.487061
2022-09-30T04:01:39.115Z,1010.513733
2022-09-30T04:02:41.175Z,1010.564575
2022-09-30T04:03:40.259Z,1010.537842
2022-09-30T04:04:36.288Z,1010.511169
2022-09-30T04:07:53.397Z,1010.435913
2022-09-30T04:08:33.940Z,1010.421326
2022-09-30T04:09:28.704Z,1010.450195
2022-09-30T04:10:30.496Z,1010.424316
2022-09-30T04:11:30.963Z,1010.459534
2022-09-30T04:12:27.938Z,1010.52533
2022-09-30T04:13:25.950Z,1010.506836
2022-09-30T04:14:24.040Z,1010.534302
2022-09-30T04:15:17.307Z,1010.543396
2022-09-30T04:17:12.077Z,1010.568787
2022-09-30T04:18:12.530Z,1010.615479
2022-09-30T04:19:10.451Z,1010.639648
2022-09-30T04:20:09.981Z,1010.671936
2022-09-30T04:22:10.682Z,1010.739563
2022-09-30T04:23:03.611Z,1010.691895
2022-09-30T04:23:59.066Z,1010.748352
2022-09-30T04:24:57.619Z,1010.743347
2022-09-30T04:25:59.239Z,1010.740234
2022-09-30T04:27:02.241Z,1010.775024
2022-09-30T04:27:53.563Z,1010.743347
2022-09-30T04:28:50.176Z,1010.740234
2022-09-30T04:29:48.525Z,1010.804504
2022-09-30T04:31:44.633Z,1010.855164
2022-09-30T04:32:42.187Z,1010.927185
2022-09-30T04:33:36.153Z,1010.860962
2022-09-30T04:34:36.532Z,1010.852844
2022-09-30T04:35:33.710Z,1010.922119
2022-09-30T04:36:30.165Z,1010.94104
2022-09-30T04:37:27.616Z,1010.951904
2022-09-30T04:39:11.079Z,1010.881897
2022-09-30T04:39:53.613Z,1010.888977
2022-09-30T04:41:50.451Z,1010.835022
2022-09-30T04:42:48.571Z,1010.864197
2022-09-30T04:43:47.639Z,1010.840637
2022-09-30T04:44:34.352Z,1010.85144
2022-09-30T04:45:33.748Z,1010.896484
2022-09-30T04:46:35.517Z,1010.873108
2022-09-30T04:47:33.171Z,1010.87561
2022-09-30T04:48:33.606Z,1010.888977
2022-09-30T04:49:31.643Z,1010.904297
2022-09-30T04:50:30.409Z,1010.847473
2022-09-30T04:51:32.300Z,1010.895813
2022-09-30T04:52:31.644Z,1010.906738
2022-09-30T04:53:27.443Z,1010.848083
2022-09-30T04:54:27.974Z,1010.94989
2022-09-30T04:55:23.197Z,1010.88562
2022-09-30T04:57:29.945Z,1010.984985
2022-09-30T04:58:36.037Z,1010.904907
2022-09-30T04:58:37.148Z,1010.904907
2022-09-30T04:59:26.582Z,1010.992432
2022-09-30T05:00:24.580Z,1011.011169
2022-09-30T05:02:21.239Z,1010.965149
2022-09-30T05:03:22.748Z,1010.930969
2022-09-30T05:04:20.766Z,1010.995239
2022-09-30T05:05:20.426Z,1010.960144
2022-09-30T05:06:15.558Z,1010.984436
2022-09-30T05:07:14.727Z,1011.032776
2022-09-30T05:08:14.946Z,1011.035156
2022-09-30T05:09:15.094Z,1010.99762
2022-09-30T05:10:10.486Z,1011.080994
2022-09-30T05:11:13.787Z,1011.05426
2022-09-30T05:12:09.331Z,1011.014099
2022-09-30T05:13:04.142Z,1011.017456
2022-09-30T05:14:04.623Z,1011.019836
2022-09-30T05:15:35.546Z,1011.088562
2022-09-30T05:16:15.366Z,1011.125427
2022-09-30T05:17:16.516Z,1011.096252
2022-09-30T05:18:18.656Z,1011.162964
2022-09-30T05:19:14.222Z,1011.070251
2022-09-30T05:20:17.676Z,1011.091797
2022-09-30T05:20:21.232Z,1011.091797
2022-09-30T05:21:12.375Z,1011.123657
2022-09-30T05:22:07.809Z,1011.08844
2022-09-30T05:23:07.469Z,1011.045959
2022-09-30T05:24:02.103Z,1011.029968
2022-09-30T05:25:03.972Z,1010.97998
2022-09-30T05:27:02.214Z,1010.969116
2022-09-30T05:27:55.047Z,1010.937317
2022-09-30T05:28:56.479Z,1011.019836
2022-09-30T05:29:58.365Z,1011.092468
2022-09-30T05:30:58.409Z,1011.02832
2022-09-30T05:31:53.221Z,1011.108337
2022-09-30T05:32:53.742Z,1011.100037
2022-09-30T05:33:55.758Z,1011.122192
2022-09-30T05:33:58.263Z,1011.122192
2022-09-30T05:34:57.771Z,1011.196106
2022-09-30T05:36:56.134Z,1011.08844
2022-09-30T05:37:55.501Z,1011.198669
2022-09-30T05:38:59.990Z,1011.232849
2022-09-30T05:39:59.860Z,1011.252075
2022-09-30T05:41:59.091Z,1011.296509
2022-09-30T05:42:54.257Z,1011.339111
2022-09-30T05:43:57.040Z,1011.365906
2022-09-30T05:44:49.858Z,1011.406677
2022-09-30T05:46:48.317Z,1011.376648
2022-09-30T05:47:44.883Z,1011.349915
2022-09-30T05:48:45.056Z,1011.486755
2022-09-30T05:49:41.364Z,1011.379883
2022-09-30T05:51:38.048Z,1011.545288
2022-09-30T05:52:40.852Z,1011.540222
2022-09-30T05:53:34.412Z,1011.574463
2022-09-30T05:54:36.742Z,1011.534485
2022-09-30T05:56:23.266Z,1011.538269
2022-09-30T05:57:05.256Z,1011.489929
2022-09-30T05:58:06.958Z,1011.468262
2022-09-30T05:59:08.176Z,1011.492981
2022-09-30T06:00:06.167Z,1011.530457
2022-09-30T06:02:06.988Z,1011.535583
2022-09-30T06:03:04.243Z,1011.521667
2022-09-30T06:04:08.446Z,1011.609924
2022-09-30T06:05:06.724Z,1011.519104
2022-09-30T06:07:09.558Z,1011.574524
2022-09-30T06:07:10.682Z,1011.574524
2022-09-30T06:08:04.374Z,1011.449036
2022-09-30T06:09:05.319Z,1011.536987
2022-09-30T06:10:01.732Z,1011.554626
2022-09-30T06:11:05.411Z,1011.575562
2022-09-30T06:12:02.625Z,1011.613037
2022-09-30T06:13:07.496Z,1011.591431
2022-09-30T06:14:02.983Z,1011.607422
2022-09-30T06:15:04.059Z,1011.650024
2022-09-30T06:17:05.776Z,1011.65332
2022-09-30T06:18:02.146Z,1011.634216
2022-09-30T06:19:04.421Z,1011.676819
2022-09-30T06:20:02.441Z,1011.674377
2022-09-30T06:21:59.497Z,1011.71698
2022-09-30T06:23:01.583Z,1011.690186
2022-09-30T06:23:58.069Z,1011.697754
2022-09-30T06:25:00.209Z,1011.676086
2022-09-30T06:25:58.362Z,1011.710632
2022-09-30T06:27:02.805Z,1011.691895
2022-09-30T06:28:00.908Z,1011.67804
2022-09-30T06:29:03.758Z,1011.67804
2022-09-30T06:29:58.148Z,1011.782288
2022-09-30T06:31:02.140Z,1011.6297
2022-09-30T06:31:58.086Z,1011.771362
2022-09-30T06:33:02.170Z,1011.805847
2022-09-30T06:33:56.669Z,1011.77655
2022-09-30T06:35:01.249Z,1011.768494
2022-09-30T06:37:01.935Z,1011.826965
2022-09-30T06:37:56.202Z,1011.850952
2022-09-30T06:38:59.793Z,1011.893555
2022-09-30T06:39:53.995Z,1011.917297
2022-09-30T06:41:53.909Z,1011.966797
2022-09-30T06:43:41.617Z,1012.01062
2022-09-30T06:43:44.808Z,1012.01062
2022-09-30T06:43:58.676Z,1012.01062
2022-09-30T06:44:19.710Z,1011.991333
2022-09-30T06:45:29.683Z,1011.960754
2022-09-30T06:45:31.384Z,1011.960754
2022-09-30T06:45:32.686Z,1011.960754
2022-09-30T06:47:24.029Z,1012.041992
2022-09-30T06:47:25.088Z,1012.041992
2022-09-30T06:47:26.260Z,1012.041992
2022-09-30T06:48:14.225Z,1012.094727
2022-09-30T06:49:13.740Z,1012.083923
2022-09-30T06:49:15.643Z,1012.083923
2022-09-30T06:50:18.803Z,1011.995483
2022-09-30T06:50:24.509Z,1011.995483
2022-09-30T06:50:25.561Z,1011.995483
2022-09-30T06:51:08.902Z,1011.966736
2022-09-30T06:52:04.387Z,1011.998596
2022-09-30T06:53:06.170Z,1012.044617
2022-09-30T06:53:58.869Z,1012.015198
2022-09-30T06:54:59.548Z,1012.07782
2022-09-30T06:56:53.922Z,1012.076538
2022-09-30T06:57:48.434Z,1012.186279
2022-09-30T06:58:47.917Z,1012.218811
2022-09-30T06:59:42.526Z,1012.248474
2022-09-30T07:01:37.210Z,1012.252563
2022-09-30T07:02:40.890Z,1012.279297
2022-09-30T07:03:33.650Z,1012.292603
2022-09-30T07:04:38.725Z,1012.31189
2022-09-30T07:05:32.026Z,1012.264038
2022-09-30T07:06:34.045Z,1012.349243
2022-09-30T07:07:29.378Z,1012.287598
2022-09-30T07:08:26.147Z,1012.308533
2022-09-30T07:09:25.962Z,1012.381226
2022-09-30T07:10:27.574Z,1012.388733
2022-09-30T07:11:20.410Z,1012.422485
2022-09-30T07:12:22.450Z,1012.358215
2022-09-30T07:13:15.004Z,1012.363342
2022-09-30T07:14:19.014Z,1012.331543
2022-09-30T07:15:13.891Z,1012.355469
2022-09-30T07:17:45.711Z,1012.382935
2022-09-30T07:18:40.828Z,1012.382141
2022-09-30T07:19:40.665Z,1012.362915
2022-09-30T07:20:35.410Z,1012.368713
2022-09-30T07:21:35.370Z,1012.363708
2022-09-30T07:22:31.431Z,1012.372131
2022-09-30T07:23:33.010Z,1012.310181
2022-09-30T07:24:26.429Z,1012.363708
2022-09-30T07:25:26.567Z,1012.350342
2022-09-30T07:26:21.507Z,1012.416382
2022-09-30T07:27:23.832Z,1012.368713
2022-09-30T07:28:17.246Z,1012.310181
2022-09-30T07:30:07.225Z,1012.419739
2022-09-30T07:30:08.073Z,1012.419739
2022-09-30T07:30:08.435Z,1012.419739
2022-09-30T07:30:26.958Z,1012.347046
2022-09-30T07:32:21.044Z,1012.40625
2022-09-30T07:33:20.241Z,1012.343994
2022-09-30T07:34:16.466Z,1012.305786
2022-09-30T07:35:22.685Z,1012.303345
2022-09-30T07:36:15.846Z,1012.301392
2022-09-30T07:37:13.111Z,1012.326904
2022-09-30T07:38:13.322Z,1012.361938
2022-09-30T07:39:08.853Z,1012.337646
2022-09-30T07:40:09.404Z,1012.353638
2022-09-30T07:41:05.878Z,1012.326904
2022-09-30T07:42:03.735Z,1012.383667
2022-09-30T07:43:03.825Z,1012.388794
2022-09-30T07:43:59.703Z,1012.458191
2022-09-30T07:45:00.296Z,1012.454834
2022-09-30T07:46:57.698Z,1012.481506
2022-09-30T07:47:53.974Z,1012.468262
2022-09-30T07:48:51.325Z,1012.504883
2022-09-30T07:49:51.955Z,1012.456055
2022-09-30T07:50:47.656Z,1012.506775
2022-09-30T07:51:48.786Z,1012.47821
2022-09-30T07:52:44.471Z,1012.434265
2022-09-30T07:53:47.699Z,1012.516846
2022-09-30T07:54:46.615Z,1012.609985
2022-09-30T07:54:50.583Z,1012.609985
2022-09-30T07:55:42.267Z,1012.494263
2022-09-30T07:56:58.141Z,1012.490479
2022-09-30T07:57:08.871Z,1012.490479
2022-09-30T07:57:41.078Z,1012.481201
2022-09-30T07:58:39.998Z,1012.439636
2022-09-30T07:59:35.854Z,1012.465576
2022-09-30T08:00:42.426Z,1012.561829
2022-09-30T08:00:42.950Z,1012.561829
2022-09-30T08:02:07.032Z,1012.409241
2022-09-30T08:02:47.571Z,1012.368408
2022-09-30T08:03:45.453Z,1012.52832
2022-09-30T08:04:45.615Z,1012.501465
2022-09-30T08:06:41.331Z,1012.432007
2022-09-30T08:07:36.673Z,1012.495605
2022-09-30T08:08:36.979Z,1012.461426
2022-09-30T08:09:32.393Z,1012.499451
2022-09-30T08:10:32.708Z,1012.483582
2022-09-30T08:12:28.451Z,1012.431152
2022-09-30T08:13:23.831Z,1012.390442
2022-09-30T08:14:24.320Z,1012.419678
2022-09-30T08:15:19.586Z,1012.370605
2022-09-30T08:17:16.506Z,1012.340027
2022-09-30T08:18:17.641Z,1012.386108
2022-09-30T08:19:13.387Z,1012.425171
2022-09-30T08:20:14.306Z,1012.416077
2022-09-30T08:22:09.263Z,1012.398254
2022-09-30T08:23:10.243Z,1012.471191
2022-09-30T08:24:06.561Z,1012.501953
2022-09-30T08:25:07.805Z,1012.477417
2022-09-30T08:26:04.043Z,1012.371887
2022-09-30T08:27:05.447Z,1012.429626
2022-09-30T08:28:01.777Z,1012.374878
2022-09-30T08:29:05.767Z,1012.408203
2022-09-30T08:30:04.645Z,1012.430847
2022-09-30T08:31:59.889Z,1012.431274
2022-09-30T08:33:03.219Z,1012.435181
2022-09-30T08:33:57.500Z,1012.475769
2022-09-30T08:34:59.397Z,1012.455627
2022-09-30T08:36:59.780Z,1012.466858
2022-09-30T08:37:56.211Z,1012.397827
2022-09-30T08:39:00.485Z,1012.458374
2022-09-30T08:39:55.176Z,1012.387756
2022-09-30T08:41:54.842Z,1012.438904
2022-09-30T08:42:57.887Z,1012.446045
2022-09-30T08:43:54.863Z,1012.425537
2022-09-30T08:44:57.027Z,1012.383301
2022-09-30T08:46:48.616Z,1012.421387
2022-09-30T08:47:29.167Z,1012.407837
2022-09-30T08:48:28.273Z,1012.454102
2022-09-30T08:49:28.867Z,1012.4021
2022-09-30T08:50:25.265Z,1012.437012
2022-09-30T08:53:08.179Z,1012.440369
2022-09-30T08:53:48.736Z,1012.440979
2022-09-30T08:54:47.793Z,1012.393738
2022-09-30T08:55:48.726Z,1012.458496
2022-09-30T08:56:45.161Z,1012.452332
2022-09-30T08:57:47.740Z,1012.426819
2022-09-30T09:07:04.795Z,1012.400024
2022-09-30T09:07:45.524Z,1012.337708
2022-09-30T09:08:44.550Z,1012.402649
2022-09-30T09:09:45.495Z,1012.374573
2022-09-30T09:10:41.780Z,1012.382263
2022-09-30T09:11:43.597Z,1012.372559
2022-09-30T09:12:39.816Z,1012.469177
2022-09-30T09:13:39.917Z,1012.361511
2022-09-30T09:14:36.933Z,1012.447144
2022-09-30T09:15:37.237Z,1012.399658
2022-09-30T09:16:34.159Z,1012.385559
2022-09-30T09:17:34.483Z,1012.451904
2022-09-30T09:18:30.845Z,1012.448914
2022-09-30T09:19:31.641Z,1012.442017
2022-09-30T09:20:27.768Z,1012.468994
2022-09-30T09:22:26.194Z,1012.440552
2022-09-30T09:23:28.028Z,1012.396423
2022-09-30T09:24:24.807Z,1012.393372
2022-09-30T09:25:26.804Z,1012.488525
2022-09-30T09:26:23.862Z,1012.358704
2022-09-30T09:27:28.245Z,1012.454712
2022-09-30T09:28:22.712Z,1012.394592
2022-09-30T09:29:24.590Z,1012.417236
2022-09-30T09:30:31.219Z,1012.407471
2022-09-30T09:31:36.178Z,1012.400879
2022-09-30T09:32:30.910Z,1012.388245
2022-09-30T09:33:35.833Z,1012.407288
2022-09-30T09:34:30.537Z,1012.392639
2022-09-30T09:35:35.358Z,1012.40033
2022-09-30T09:36:30.581Z,1012.376587
2022-09-30T09:37:32.023Z,1012.321045
2022-09-30T09:38:32.595Z,1012.396606
2022-09-30T09:39:30.537Z,1012.333618
2022-09-30T09:40:32.914Z,1012.257385
2022-09-30T09:42:36.190Z,1012.231323
2022-09-30T09:43:32.424Z,1012.256836
2022-09-30T09:44:37.154Z,1012.223511
2022-09-30T09:47:12.874Z,1012.225891
2022-09-30T09:47:33.587Z,1012.264648
2022-09-30T09:48:35.872Z,1012.240479
2022-09-30T09:49:33.900Z,1012.217224
2022-09-30T09:51:33.264Z,1012.213135
2022-09-30T09:52:14.781Z,1012.279846
2022-09-30T09:53:14.842Z,1012.233582
2022-09-30T09:54:16.977Z,1012.215942
2022-09-30T09:56:53.699Z,1012.209534
2022-09-30T09:57:13.992Z,1012.311951
2022-09-30T09:58:14.086Z,1012.273315
2022-09-30T09:59:19.300Z,1012.274902
2022-09-30T10:00:14.133Z,1012.222168
2022-09-30T10:01:16.882Z,1012.295349
2022-09-30T10:02:14.643Z,1012.280823
2022-09-30T10:03:17.280Z,1012.236145
2022-09-30T10:04:15.079Z,1012.279968
2022-09-30T10:05:17.826Z,1012.279968
2022-09-30T10:07:18.428Z,1012.324585
2022-09-30T10:08:16.672Z,1012.255737
2022-09-30T10:09:21.633Z,1012.345032
2022-09-30T10:10:22.347Z,1012.275146
2022-09-30T10:10:24.010Z,1012.275146
2022-09-30T10:12:17.933Z,1012.255005
2022-09-30T10:13:22.879Z,1012.229553
2022-09-30T10:14:18.395Z,1012.225037
2022-09-30T10:15:20.488Z,1012.183289
2022-09-30T10:17:20.227Z,1012.13385
2022-09-30T10:18:18.393Z,1012.22345
2022-09-30T10:19:22.510Z,1012.171875
2022-09-30T10:20:17.180Z,1012.242554
2022-09-30T10:21:21.921Z,1012.220276
2022-09-30T10:22:16.423Z,1012.185303
2022-09-30T10:23:20.955Z,1012.202515
2022-09-30T10:24:16.449Z,1012.169434
2022-09-30T10:25:19.780Z,1012.109436
2022-09-30T10:27:16.128Z,1012.205444
2022-09-30T10:28:13.369Z,1012.125305
2022-09-30T10:29:14.985Z,1012.153564
2022-09-30T10:30:11.582Z,1012.141174
2022-09-30T10:31:15.810Z,1012.158813
2022-09-30T10:32:10.302Z,1012.054565
2022-09-30T10:33:10.862Z,1012.12439
2022-09-30T10:34:07.329Z,1012.147705
2022-09-30T10:35:08.176Z,1012.108521
2022-09-30T10:36:50.127Z,1012.146667
2022-09-30T10:37:30.450Z,1012.205444
2022-09-30T10:38:31.328Z,1012.208252
2022-09-30T10:39:26.980Z,1012.177612
2022-09-30T10:40:27.773Z,1012.152344
2022-09-30T10:41:24.507Z,1012.136658
2022-09-30T10:42:26.060Z,1012.252563
2022-09-30T10:43:20.359Z,1012.182678
2022-09-30T10:44:18.601Z,1012.220886
2022-09-30T10:47:02.322Z,1012.1604
2022-09-30T10:47:42.466Z,1012.188599
2022-09-30T10:48:40.737Z,1012.1474
2022-09-30T10:49:38.809Z,1012.139343
2022-09-30T10:50:37.244Z,1012.1604
2022-09-30T10:51:34.891Z,1012.17334
2022-09-30T10:52:32.949Z,1012.138367
2022-09-30T10:53:30.630Z,1012.18457
2022-09-30T10:54:28.669Z,1012.107239
2022-09-30T10:55:26.538Z,1012.186462
2022-09-30T10:56:24.121Z,1012.116638
2022-09-30T10:57:21.977Z,1012.18634
2022-09-30T10:58:19.678Z,1012.140747
2022-09-30T10:59:18.018Z,1012.178955
2022-09-30T11:00:17.836Z,1012.170593
2022-09-30T11:01:13.326Z,1012.143616
2022-09-30T11:02:16.186Z,1012.23761
2022-09-30T11:03:08.938Z,1012.192993
2022-09-30T11:04:06.611Z,1012.147339
2022-09-30T11:05:07.324Z,1012.253418
2022-09-30T11:06:02.610Z,1012.206543
2022-09-30T11:07:00.822Z,1012.206543
2022-09-30T11:07:55.157Z,1012.25708
2022-09-30T11:08:56.908Z,1012.288696
2022-09-30T11:09:49.894Z,1012.253418
2022-09-30T11:11:52.744Z,1012.291565
2022-09-30T11:12:33.555Z,1012.331482
2022-09-30T11:13:31.976Z,1012.293335
2022-09-30T11:14:30.618Z,1012.293335
2022-09-30T11:15:31.183Z,1012.334351
2022-09-30T11:16:27.491Z,1012.344482
2022-09-30T11:17:25.185Z,1012.414307
2022-09-30T11:19:10.981Z,1012.401306
2022-09-30T11:19:51.316Z,1012.43396
2022-09-30T11:20:50.227Z,1012.422791
2022-09-30T11:21:50.556Z,1012.429382
2022-09-30T11:22:46.096Z,1012.442322
2022-09-30T11:23:46.554Z,1012.460876
2022-09-30T11:24:42.055Z,1012.421753
2022-09-30T11:25:42.464Z,1012.408813
2022-09-30T11:26:37.997Z,1012.433044
2022-09-30T11:27:38.395Z,1012.397644
2022-09-30T11:28:34.266Z,1012.483337
2022-09-30T11:29:39.891Z,1012.406006
2022-09-30T11:30:35.517Z,1012.390259
2022-09-30T11:31:29.876Z,1012.426453
2022-09-30T11:32:29.118Z,1012.449829
2022-09-30T11:33:24.593Z,1012.485168
2022-09-30T11:34:27.441Z,1012.413452
2022-09-30T11:35:20.688Z,1012.433044
2022-09-30T11:36:21.087Z,1012.426453
2022-09-30T11:37:19.329Z,1012.393066
2022-09-30T11:38:14.784Z,1012.412964
2022-09-30T11:39:15.293Z,1012.401794
2022-09-30T11:40:12.592Z,1012.370239
2022-09-30T11:41:14.755Z,1012.366028
2022-09-30T11:42:07.687Z,1012.43396
2022-09-30T11:43:08.346Z,1012.415344
2022-09-30T11:44:09.618Z,1012.296265
2022-09-30T11:45:02.828Z,1012.341919
2022-09-30T11:46:05.319Z,1012.380005
2022-09-30T11:46:58.241Z,1012.361389
2022-09-30T11:47:55.932Z,1012.370544
2022-09-30T11:48:56.310Z,1012.320374
2022-09-30T11:49:51.681Z,1012.294434
2022-09-30T11:51:31.019Z,1012.368896
2022-09-30T11:52:26.624Z,1012.351257